createdAt,value
2022-08-22T00:00:55.929Z,98025.75
2022-08-22T00:02:10.130Z,98019.50
2022-08-22T00:02:42.056Z,98011.53
2022-08-22T00:02:48.856Z,98042.59
2022-08-22T00:02:52.693Z,98020.97
2022-08-22T00:02:59.713Z,98047.47
2022-08-22T00:03:02.037Z,98018.16
2022-08-22T00:03:31.590Z,98028.06
2022-08-22T00:05:01.028Z,98027.56
2022-08-22T00:06:39.166Z,98024.97
2022-08-22T00:07:53.806Z,98038.09
2022-08-22T00:09:06.128Z,98031.94
2022-08-22T00:10:25.278Z,98026.06
2022-08-22T00:11:38.395Z,98024.78
2022-08-22T00:12:50.746Z,98030.34
2022-08-22T00:14:13.665Z,98030.63
2022-08-22T00:15:43.159Z,98030.63
2022-08-22T00:17:00.546Z,98036.81
2022-08-22T00:18:20.553Z,98031.56
2022-08-22T00:19:56.414Z,98034.03
2022-08-22T00:21:16.290Z,98040.78
2022-08-22T00:22:32.172Z,98030.75
2022-08-22T00:23:43.505Z,98029.97
2022-08-22T00:24:58.344Z,98039.31
2022-08-22T00:26:31.750Z,98036.34
2022-08-22T00:27:53.025Z,98039.53
2022-08-22T00:29:15.721Z,98037.72
2022-08-22T00:30:18.688Z,98037.13
2022-08-22T00:31:24.501Z,98036.50
2022-08-22T00:32:33.027Z,98039.69
2022-08-22T00:33:48.230Z,98016.31
2022-08-22T00:35:02.757Z,98033.53
2022-08-22T00:36:16.481Z,98023.78
2022-08-22T00:37:46.296Z,98033.81
2022-08-22T00:39:07.758Z,98027.97
2022-08-22T00:40:30.539Z,98033.53
2022-08-22T00:41:49.605Z,98018.81
2022-08-22T00:43:32.742Z,98026.28
2022-08-22T00:45:12.303Z,98031.66
2022-08-22T00:46:32.485Z,98033.44
2022-08-22T00:48:03.887Z,98030.38
2022-08-22T00:49:21.977Z,98035.25
2022-08-22T00:50:52.161Z,98040.19
2022-08-22T00:51:56.522Z,98031.16
2022-08-22T00:53:00.873Z,98034.72
2022-08-22T00:54:21.628Z,98026.88
2022-08-22T00:55:41.731Z,98032.44
2022-08-22T00:57:31.574Z,98031.03
2022-08-22T00:58:57.619Z,98037.22
2022-08-22T01:00:14.184Z,98033.94
2022-08-22T01:01:26.544Z,98032.34
2022-08-22T01:02:56.862Z,98034.72
2022-08-22T01:04:13.850Z,98035.03
2022-08-22T01:05:33.289Z,98034.81
2022-08-22T01:06:40.741Z,98034.03
2022-08-22T01:08:01.645Z,98032.63
2022-08-22T01:09:14.016Z,98036.63
2022-08-22T01:10:52.460Z,98036.91
2022-08-22T01:12:23.934Z,98045.25
2022-08-22T01:13:28.034Z,98046.66
2022-08-22T01:14:38.790Z,98050.63
2022-08-22T01:15:42.515Z,98041.91
2022-08-22T01:17:01.965Z,98045.56
2022-08-22T01:18:25.080Z,98051.44
2022-08-22T01:20:00.867Z,98048.34
2022-08-22T01:21:30.350Z,98049.34
2022-08-22T01:22:31.997Z,98045.84
2022-08-22T01:24:08.937Z,98046.25
2022-08-22T01:25:57.288Z,98049.53
2022-08-22T01:27:19.336Z,98046.84
2022-08-22T01:28:45.171Z,98052.47
2022-08-22T01:30:31.770Z,98041.72
2022-08-22T01:31:51.718Z,98046.13
2022-08-22T01:33:19.355Z,98048.09
2022-08-22T01:34:36.126Z,98043.22
2022-08-22T01:36:02.678Z,98044.59
2022-08-22T01:37:23.866Z,98044.03
2022-08-22T01:38:48.130Z,98048.59
2022-08-22T01:40:31.022Z,98040.84
2022-08-22T01:41:46.319Z,98040.53
2022-08-22T01:43:12.237Z,98047.00
2022-08-22T01:44:53.042Z,98046.50
2022-08-22T01:46:11.740Z,98047.00
2022-08-22T01:47:17.949Z,98040.03
2022-08-22T01:48:31.281Z,98044.41
2022-08-22T01:50:02.237Z,98042.78
2022-08-22T01:51:17.767Z,98044.69
2022-08-22T01:52:43.853Z,98039.44
2022-08-22T01:54:27.175Z,98034.63
2022-08-22T01:55:44.829Z,98023.88
2022-08-22T01:56:47.500Z,98034.53
2022-08-22T01:57:56.168Z,98046.84
2022-08-22T01:59:04.821Z,98030.81
2022-08-22T02:00:17.647Z,98043.78
2022-08-22T02:01:53.309Z,98049.66
2022-08-22T02:03:28.126Z,98055.22
2022-08-22T02:04:34.499Z,98046.47
2022-08-22T02:06:09.987Z,98056.84
2022-08-22T02:07:31.832Z,98043.50
2022-08-22T02:09:02.926Z,98048.56
2022-08-22T02:10:25.577Z,98061.59
2022-08-22T02:11:52.405Z,98055.41
2022-08-22T02:13:03.350Z,98054.63
2022-08-22T02:14:21.467Z,98062.59
2022-08-22T02:15:38.485Z,98057.22
2022-08-22T02:16:47.530Z,98058.31
2022-08-22T02:18:09.110Z,98058.31
2022-08-22T02:19:10.752Z,98061.50
2022-08-22T02:20:25.188Z,98054.16
2022-08-22T02:21:43.094Z,98048.16
2022-08-22T02:23:04.306Z,98059.34
2022-08-22T02:24:16.712Z,98056.34
2022-08-22T02:25:25.801Z,98035.34
2022-08-22T02:26:51.720Z,98037.53
2022-08-22T02:28:05.682Z,98056.16
2022-08-22T02:29:21.302Z,98055.34
2022-08-22T02:30:42.321Z,98058.03
2022-08-22T02:31:56.887Z,98039.94
2022-08-22T02:33:12.802Z,98056.94
2022-08-22T02:34:47.574Z,98048.97
2022-08-22T02:36:00.044Z,98039.13
2022-08-22T02:37:10.613Z,98053.16
2022-08-22T02:38:40.041Z,98039.81
2022-08-22T02:40:05.183Z,98042.50
2022-08-22T02:41:14.383Z,98050.78
2022-08-22T02:42:34.830Z,98056.16
2022-08-22T02:43:45.051Z,98056.44
2022-08-22T02:45:00.519Z,98059.91
2022-08-22T02:46:14.368Z,98065.28
2022-08-22T02:47:29.662Z,98053.34
2022-08-22T02:49:12.210Z,98065.88
2022-08-22T02:50:24.607Z,98068.75
2022-08-22T02:51:50.098Z,98066.38
2022-08-22T02:53:05.594Z,98069.84
2022-08-22T02:54:45.606Z,98065.88
2022-08-22T02:56:03.621Z,98063.47
2022-08-22T02:57:14.871Z,98057.00
2022-08-22T02:58:42.189Z,98061.41
2022-08-22T03:00:32.004Z,98066.25
2022-08-22T03:01:40.861Z,98070.25
2022-08-22T03:02:45.887Z,98066.78
2022-08-22T03:03:48.762Z,98067.63
2022-08-22T03:04:57.662Z,98073.72
2022-08-22T03:06:05.576Z,98080.69
2022-08-22T03:07:22.111Z,98075.91
2022-08-22T03:08:31.940Z,98085.50
2022-08-22T03:09:56.557Z,98078.09
2022-08-22T03:11:24.574Z,98067.19
2022-08-22T03:12:32.730Z,98059.59
2022-08-22T03:13:59.367Z,98076.34
2022-08-22T03:15:29.129Z,98076.09
2022-08-22T03:17:11.000Z,98069.84
2022-08-22T03:18:12.672Z,98076.53
2022-08-22T03:19:27.834Z,98077.97
2022-08-22T03:21:11.576Z,98074.63
2022-08-22T03:22:19.061Z,98074.03
2022-08-22T03:23:34.251Z,98072.97
2022-08-22T03:24:38.802Z,98075.34
2022-08-22T03:25:49.951Z,98076.66
2022-08-22T03:27:10.112Z,98073.75
2022-08-22T03:28:59.018Z,98081.56
2022-08-22T03:30:07.489Z,98084.63
2022-08-22T03:31:21.087Z,98073.75
2022-08-22T03:32:44.351Z,98081.06
2022-08-22T03:34:14.904Z,98075.69
2022-08-22T03:35:35.022Z,98083.09
2022-08-22T03:36:37.599Z,98074.00
2022-08-22T03:37:43.129Z,98079.50
2022-08-22T03:39:17.412Z,98077.84
2022-08-22T03:40:32.554Z,98073.28
2022-08-22T03:42:11.227Z,98069.34
2022-08-22T03:43:40.168Z,98073.28
2022-08-22T03:45:26.936Z,98073.63
2022-08-22T03:47:13.357Z,98058.06
2022-08-22T03:48:44.932Z,98071.81
2022-08-22T03:49:59.498Z,98075.34
2022-08-22T03:51:10.677Z,98072.16
2022-08-22T03:52:34.073Z,98079.16
2022-08-22T03:54:03.600Z,98074.94
2022-08-22T03:55:34.816Z,98072.72
2022-08-22T03:56:45.061Z,98071.13
2022-08-22T03:58:12.005Z,98063.59
2022-08-22T03:59:51.505Z,98077.25
2022-08-22T04:01:11.295Z,98080.16
2022-08-22T04:02:41.910Z,98082.81
2022-08-22T04:04:23.218Z,98094.63
2022-08-22T04:05:32.393Z,98090.88
2022-08-22T04:07:32.443Z,98096.38
2022-08-22T04:09:02.936Z,98095.66
2022-08-22T04:10:17.541Z,98094.66
2022-08-22T04:11:37.548Z,98099.38
2022-08-22T04:12:44.983Z,98099.44
2022-08-22T04:13:49.324Z,98094.38
2022-08-22T04:15:16.429Z,98094.28
2022-08-22T04:16:49.355Z,98095.22
2022-08-22T04:18:03.477Z,98097.50
2022-08-22T04:19:10.913Z,98094.53
2022-08-22T04:20:21.246Z,98101.19
2022-08-22T04:22:08.265Z,98093.59
2022-08-22T04:23:22.135Z,98098.03
2022-08-22T04:24:51.966Z,98096.88
2022-08-22T04:26:01.866Z,98095.16
2022-08-22T04:27:21.901Z,98097.50
2022-08-22T04:28:36.247Z,98095.75
2022-08-22T04:29:47.056Z,98097.78
2022-08-22T04:31:05.104Z,98084.59
2022-08-22T04:32:15.156Z,98095.00
2022-08-22T04:33:26.545Z,98092.09
2022-08-22T04:34:37.421Z,98095.03
2022-08-22T04:35:45.726Z,98082.00
2022-08-22T04:36:54.573Z,98091.63
2022-08-22T04:38:14.580Z,98096.41
2022-08-22T04:39:21.385Z,98088.56
2022-08-22T04:40:34.481Z,98090.66
2022-08-22T04:41:48.937Z,98091.94
2022-08-22T04:43:06.699Z,98072.13
2022-08-22T04:44:17.429Z,98081.53
2022-08-22T04:45:25.062Z,98083.41
2022-08-22T04:46:41.856Z,98094.91
2022-08-22T04:47:56.950Z,98092.00
2022-08-22T04:49:17.611Z,98095.44
2022-08-22T04:50:26.160Z,98100.41
2022-08-22T04:51:39.642Z,98099.13
2022-08-22T04:52:55.153Z,98106.38
2022-08-22T04:53:56.847Z,98103.78
2022-08-22T04:55:18.083Z,98105.59
2022-08-22T04:56:37.949Z,98110.56
2022-08-22T04:57:48.512Z,98112.31
2022-08-22T04:59:03.061Z,98118.22
2022-08-22T05:00:08.481Z,98118.44
2022-08-22T05:01:16.626Z,98123.53
2022-08-22T05:02:25.217Z,98106.41
2022-08-22T05:03:30.303Z,98109.56
2022-08-22T05:04:43.568Z,98127.66
2022-08-22T05:05:48.688Z,98126.59
2022-08-22T05:06:54.316Z,98117.03
2022-08-22T05:07:59.982Z,98120.91
2022-08-22T05:09:12.915Z,98121.38
2022-08-22T05:10:23.078Z,98120.94
2022-08-22T05:11:25.014Z,98107.25
2022-08-22T05:12:40.645Z,98125.91
2022-08-22T05:13:50.957Z,98133.97
2022-08-22T05:15:05.588Z,98136.22
2022-08-22T05:16:19.146Z,98135.13
2022-08-22T05:17:24.837Z,98135.50
2022-08-22T05:18:42.028Z,98141.38
2022-08-22T05:19:50.777Z,98144.84
2022-08-22T05:20:54.482Z,98147.59
2022-08-22T05:21:56.903Z,98151.59
2022-08-22T05:23:17.641Z,98134.91
2022-08-22T05:24:27.980Z,98155.28
2022-08-22T05:25:36.369Z,98142.72
2022-08-22T05:26:42.509Z,98137.31
2022-08-22T05:27:56.264Z,98144.59
2022-08-22T05:29:03.480Z,98147.63
2022-08-22T05:30:11.795Z,98140.59
2022-08-22T05:31:23.223Z,98154.72
2022-08-22T05:32:32.862Z,98154.56
2022-08-22T05:33:41.750Z,98150.91
2022-08-22T05:34:46.800Z,98158.50
2022-08-22T05:35:58.453Z,98155.97
2022-08-22T05:37:14.410Z,98160.75
2022-08-22T05:38:20.950Z,98159.22
2022-08-22T05:39:27.912Z,98152.84
2022-08-22T05:40:33.294Z,98153.91
2022-08-22T05:41:37.564Z,98158.94
2022-08-22T05:42:39.273Z,98163.50
2022-08-22T05:43:44.151Z,98162.97
2022-08-22T05:44:46.206Z,98159.56
2022-08-22T05:45:49.194Z,98167.38
2022-08-22T05:47:00.115Z,98161.03
2022-08-22T05:48:11.967Z,98164.44
2022-08-22T05:49:36.087Z,98167.59
2022-08-22T05:50:37.832Z,98163.63
2022-08-22T05:51:48.492Z,98169.81
2022-08-22T05:53:11.021Z,98170.56
2022-08-22T05:54:20.128Z,98159.41
2022-08-22T05:55:28.224Z,98168.81
2022-08-22T05:56:38.417Z,98170.38
2022-08-22T05:57:46.520Z,98170.66
2022-08-22T05:58:53.894Z,98170.72
2022-08-22T06:00:10.418Z,98161.34
2022-08-22T06:01:35.611Z,98177.41
2022-08-22T06:03:15.032Z,98174.94
2022-08-22T06:04:52.500Z,98166.78
2022-08-22T06:06:03.512Z,98173.03
2022-08-22T06:07:17.042Z,98170.66
2022-08-22T06:08:25.169Z,98168.38
2022-08-22T06:09:48.333Z,98174.50
2022-08-22T06:10:55.744Z,98169.06
2022-08-22T06:12:21.712Z,98167.94
2022-08-22T06:13:41.920Z,98170.19
2022-08-22T06:14:52.739Z,98174.72
2022-08-22T06:15:57.597Z,98168.34
2022-08-22T06:17:10.331Z,98161.59
2022-08-22T06:18:16.961Z,98169.06
2022-08-22T06:19:20.276Z,98168.72
2022-08-22T06:20:28.712Z,98165.63
2022-08-22T06:21:39.301Z,98173.38
2022-08-22T06:22:51.241Z,98168.34
2022-08-22T06:24:01.378Z,98166.09
2022-08-22T06:25:12.983Z,98165.63
2022-08-22T06:26:20.450Z,98171.66
2022-08-22T06:27:27.070Z,98174.28
2022-08-22T06:28:55.084Z,98173.28
2022-08-22T06:30:04.107Z,98171.91
2022-08-22T06:31:08.421Z,98176.56
2022-08-22T06:32:16.977Z,98171.91
2022-08-22T06:33:42.373Z,98175.09
2022-08-22T06:34:47.829Z,98162.75
2022-08-22T06:36:14.212Z,98173.47
2022-08-22T06:37:25.357Z,98170.69
2022-08-22T06:38:33.600Z,98175.88
2022-08-22T06:39:42.957Z,98167.19
2022-08-22T06:40:44.794Z,98164.09
2022-08-22T06:41:49.370Z,98172.94
2022-08-22T06:42:52.530Z,98169.41
2022-08-22T06:43:55.692Z,98165.28
2022-08-22T06:45:07.600Z,98162.09
2022-08-22T06:46:12.396Z,98163.53
2022-08-22T06:47:23.486Z,98168.47
2022-08-22T06:48:25.295Z,98176.41
2022-08-22T06:49:30.447Z,98161.44
2022-08-22T06:50:35.205Z,98161.72
2022-08-22T06:51:39.056Z,98179.75
2022-08-22T06:53:19.731Z,98173.56
2022-08-22T06:54:26.541Z,98168.41
2022-08-22T06:55:30.212Z,98172.22
2022-08-22T06:56:44.211Z,98160.47
2022-08-22T06:57:53.877Z,98172.72
2022-08-22T06:58:59.756Z,98164.56
2022-08-22T07:00:14.318Z,98155.88
2022-08-22T07:01:23.857Z,98165.25
2022-08-22T07:02:41.072Z,98167.31
2022-08-22T07:04:07.893Z,98171.88
2022-08-22T07:05:16.821Z,98171.06
2022-08-22T07:06:28.518Z,98182.53
2022-08-22T07:07:30.461Z,98169.53
2022-08-22T07:08:38.969Z,98176.31
2022-08-22T07:09:41.711Z,98154.38
2022-08-22T07:10:47.804Z,98168.91
2022-08-22T07:11:50.937Z,98176.66
2022-08-22T07:12:56.560Z,98178.78
2022-08-22T07:14:05.849Z,98186.03
2022-08-22T07:15:37.466Z,98182.53
2022-08-22T07:16:59.101Z,98176.97
2022-08-22T07:18:05.306Z,98180.16
2022-08-22T07:19:09.361Z,98174.34
2022-08-22T07:20:42.303Z,98178.94
2022-08-22T07:21:47.267Z,98175.88
2022-08-22T07:23:13.422Z,98164.47
2022-08-22T07:24:20.705Z,98177.81
2022-08-22T07:25:24.519Z,98175.75
2022-08-22T07:26:26.204Z,98175.31
2022-08-22T07:27:48.911Z,98173.63
2022-08-22T07:28:59.783Z,98175.94
2022-08-22T07:30:14.850Z,98175.94
2022-08-22T07:31:40.546Z,98165.16
2022-08-22T07:32:54.360Z,98178.56
2022-08-22T07:34:10.874Z,98175.03
2022-08-22T07:35:21.776Z,98168.41
2022-08-22T07:36:31.494Z,98171.00
2022-08-22T07:37:52.188Z,98173.13
2022-08-22T07:39:12.466Z,98173.56
2022-08-22T07:40:27.182Z,98175.94
2022-08-22T07:42:00.109Z,98176.00
2022-08-22T07:43:15.025Z,98176.75
2022-08-22T07:44:23.701Z,98181.78
2022-08-22T07:45:45.655Z,98183.63
2022-08-22T07:46:58.053Z,98184.41
2022-08-22T07:48:19.751Z,98178.94
2022-08-22T07:49:54.064Z,98160.22
2022-08-22T07:51:17.758Z,98174.78
2022-08-22T07:52:29.131Z,98163.69
2022-08-22T07:53:44.670Z,98176.56
2022-08-22T07:55:18.993Z,98179.72
2022-08-22T07:56:27.850Z,98182.09
2022-08-22T07:57:40.666Z,98175.22
2022-08-22T07:58:45.304Z,98176.13
2022-08-22T07:59:50.988Z,98176.63
2022-08-22T08:00:54.553Z,98172.78
2022-08-22T08:02:00.135Z,98176.75
2022-08-22T08:03:06.462Z,98168.81
2022-08-22T08:04:13.269Z,98164.25
2022-08-22T08:05:16.320Z,98183.72
2022-08-22T08:06:18.097Z,98177.56
2022-08-22T08:07:23.939Z,98168.03
2022-08-22T08:08:45.157Z,98175.50
2022-08-22T08:09:53.121Z,98180.91
2022-08-22T08:10:57.521Z,98151.88
2022-08-22T08:12:02.066Z,98180.19
2022-08-22T08:13:10.556Z,98171.88
2022-08-22T08:14:15.597Z,98163.63
2022-08-22T08:15:23.636Z,98177.69
2022-08-22T08:16:29.300Z,98161.69
2022-08-22T08:17:34.594Z,98173.78
2022-08-22T08:18:39.286Z,98169.38
2022-08-22T08:19:43.124Z,98167.94
2022-08-22T08:20:51.999Z,98167.19
2022-08-22T08:21:56.752Z,98158.94
2022-08-22T08:22:59.628Z,98174.69
2022-08-22T08:24:02.350Z,98164.44
2022-08-22T08:25:07.009Z,98162.69
2022-08-22T08:26:15.959Z,98172.94
2022-08-22T08:27:41.197Z,98163.81
2022-08-22T08:28:49.312Z,98164.22
2022-08-22T08:29:59.386Z,98163.69
2022-08-22T08:31:09.698Z,98166.19
2022-08-22T08:32:13.396Z,98174.72
2022-08-22T08:33:25.762Z,98173.59
2022-08-22T08:34:32.525Z,98160.34
2022-08-22T08:35:42.415Z,98166.91
2022-08-22T08:37:28.831Z,98163.38
2022-08-22T08:38:43.925Z,98166.91
2022-08-22T08:39:52.245Z,98152.00
2022-08-22T08:41:12.272Z,98161.28
2022-08-22T08:42:58.396Z,98167.53
2022-08-22T08:44:15.297Z,98158.03
2022-08-22T08:45:45.972Z,98156.97
2022-08-22T08:47:22.853Z,98153.91
2022-08-22T08:48:50.444Z,98153.13
2022-08-22T08:50:21.173Z,98144.88
2022-08-22T08:52:00.154Z,98153.91
2022-08-22T08:53:39.069Z,98148.75
2022-08-22T08:55:19.714Z,98154.16
2022-08-22T08:56:47.329Z,98150.22
2022-08-22T08:58:17.720Z,98145.66
2022-08-22T08:59:32.535Z,98148.44
2022-08-22T09:01:03.852Z,98149.94
2022-08-22T09:02:25.160Z,98148.34
2022-08-22T09:03:37.692Z,98139.19
2022-08-22T09:04:48.439Z,98142.47
2022-08-22T09:05:56.124Z,98145.63
2022-08-22T09:07:18.802Z,98143.59
2022-08-22T09:08:55.496Z,98138.00
2022-08-22T09:10:27.350Z,98141.47
2022-08-22T09:12:08.625Z,98137.31
2022-08-22T09:13:40.631Z,98131.91
2022-08-22T09:15:14.101Z,98129.53
2022-08-22T09:16:25.593Z,98134.94
2022-08-22T09:17:42.597Z,98134.16
2022-08-22T09:19:06.720Z,98126.31
2022-08-22T09:20:26.425Z,98126.28
2022-08-22T09:21:47.456Z,98126.53
2022-08-22T09:23:01.048Z,98122.59
2022-08-22T09:24:12.725Z,98119.19
2022-08-22T09:25:38.699Z,98111.47
2022-08-22T09:26:57.355Z,98113.47
2022-08-22T09:28:28.490Z,98123.28
2022-08-22T09:29:54.714Z,98123.25
2022-08-22T09:31:46.484Z,98118.47
2022-08-22T09:33:05.733Z,98107.56
2022-08-22T09:34:30.019Z,98117.72
2022-08-22T09:35:37.658Z,98117.31
2022-08-22T09:36:48.436Z,98118.88
2022-08-22T09:38:05.934Z,98120.06
2022-08-22T09:39:17.968Z,98123.19
2022-08-22T09:40:24.794Z,98120.94
2022-08-22T09:41:41.434Z,98118.19
2022-08-22T09:42:46.399Z,98115.81
2022-08-22T09:44:12.942Z,98112.28
2022-08-22T09:45:24.161Z,98108.75
2022-08-22T09:46:36.883Z,98102.91
2022-08-22T09:48:21.459Z,98103.28
2022-08-22T09:49:44.877Z,98104.44
2022-08-22T09:51:08.335Z,98101.28
2022-08-22T09:52:33.875Z,98103.25
2022-08-22T09:54:11.642Z,98107.50
2022-08-22T09:55:45.482Z,98108.63
2022-08-22T09:56:59.662Z,98106.59
2022-08-22T09:58:32.043Z,98104.31
2022-08-22T09:59:43.317Z,98102.38
2022-08-22T10:00:55.514Z,98099.66
2022-08-22T10:02:44.515Z,98099.75
2022-08-22T10:04:23.346Z,98090.69
2022-08-22T10:05:46.601Z,98097.16
2022-08-22T10:07:24.067Z,98092.94
2022-08-22T10:08:37.290Z,98079.47
2022-08-22T10:09:57.475Z,98092.84
2022-08-22T10:11:20.558Z,98089.66
2022-08-22T10:12:35.759Z,98090.91
2022-08-22T10:13:57.523Z,98099.97
2022-08-22T10:15:33.925Z,98094.59
2022-08-22T10:16:47.535Z,98101.28
2022-08-22T10:18:10.459Z,98099.19
2022-08-22T10:19:20.317Z,98086.78
2022-08-22T10:20:29.267Z,98094.09
2022-08-22T10:22:05.684Z,98087.06
2022-08-22T10:23:33.414Z,98090.94
2022-08-22T10:25:07.734Z,98093.31
2022-08-22T10:26:22.858Z,98089.31
2022-08-22T10:27:30.137Z,98086.22
2022-08-22T10:28:49.471Z,98078.16
2022-08-22T10:30:01.437Z,98087.31
2022-08-22T10:31:21.325Z,98094.22
2022-08-22T10:32:34.438Z,98084.94
2022-08-22T10:34:04.486Z,98089.75
2022-08-22T10:35:34.398Z,98086.28
2022-08-22T10:37:07.443Z,98091.69
2022-08-22T10:38:31.866Z,98091.72
2022-08-22T10:39:48.117Z,98075.66
2022-08-22T10:41:00.730Z,98087.97
2022-08-22T10:42:35.247Z,98092.41
2022-08-22T10:44:14.902Z,98098.28
2022-08-22T10:45:36.177Z,98093.38
2022-08-22T10:46:44.091Z,98092.56
2022-08-22T10:47:54.881Z,98089.84
2022-08-22T10:49:07.805Z,98093.47
2022-08-22T10:50:20.116Z,98091.41
2022-08-22T10:51:54.293Z,98090.31
2022-08-22T10:53:29.574Z,98075.75
2022-08-22T10:54:37.439Z,98091.88
2022-08-22T10:55:42.396Z,98087.72
2022-08-22T10:56:55.496Z,98093.91
2022-08-22T10:58:13.395Z,98091.09
2022-08-22T10:59:27.361Z,98094.31
2022-08-22T11:00:51.450Z,98091.69
2022-08-22T11:02:21.099Z,98093.41
2022-08-22T11:03:42.399Z,98089.56
2022-08-22T11:04:53.220Z,98093.69
2022-08-22T11:06:00.472Z,98087.31
2022-08-22T11:07:14.904Z,98093.38
2022-08-22T11:08:20.907Z,98090.59
2022-08-22T11:09:43.021Z,98095.31
2022-08-22T11:11:01.719Z,98089.53
2022-08-22T11:12:03.769Z,98095.34
2022-08-22T11:13:21.412Z,98095.69
2022-08-22T11:14:41.974Z,98089.38
2022-08-22T11:16:05.266Z,98089.63
2022-08-22T11:17:14.539Z,98096.59
2022-08-22T11:18:35.705Z,98086.84
2022-08-22T11:20:09.044Z,98082.94
2022-08-22T11:21:23.722Z,98089.44
2022-08-22T11:22:34.502Z,98075.56
2022-08-22T11:23:45.611Z,98079.00
2022-08-22T11:25:35.705Z,98077.66
2022-08-22T11:27:17.747Z,98078.28
2022-08-22T11:28:30.934Z,98069.59
2022-08-22T11:30:03.851Z,98075.66
2022-08-22T11:31:13.806Z,98075.72
2022-08-22T11:32:29.097Z,98065.13
2022-08-22T11:33:47.350Z,98063.50
2022-08-22T11:35:16.845Z,98064.59
2022-08-22T11:36:46.360Z,98061.34
2022-08-22T11:37:56.389Z,98060.69
2022-08-22T11:39:23.157Z,98049.44
2022-08-22T11:40:49.149Z,98047.31
2022-08-22T11:42:01.890Z,98058.59
2022-08-22T11:43:18.224Z,98057.19
2022-08-22T11:44:50.348Z,98062.31
2022-08-22T11:45:57.532Z,98058.47
2022-08-22T11:47:01.957Z,98053.88
2022-08-22T11:48:34.013Z,98057.47
2022-08-22T11:49:55.807Z,98054.47
2022-08-22T11:50:57.450Z,98061.50
2022-08-22T11:52:25.717Z,98062.38
2022-08-22T11:53:27.369Z,98059.25
2022-08-22T11:54:51.770Z,98058.78
2022-08-22T11:55:56.424Z,98055.97
2022-08-22T11:57:11.146Z,98054.59
2022-08-22T11:58:34.883Z,98051.00
2022-08-22T11:59:45.538Z,98056.31
2022-08-22T12:01:04.514Z,98063.91
2022-08-22T12:02:31.416Z,98059.88
2022-08-22T12:03:55.691Z,98054.69
2022-08-22T12:05:11.034Z,98049.09
2022-08-22T12:06:24.017Z,98055.47
2022-08-22T12:07:30.315Z,98057.06
2022-08-22T12:08:40.840Z,98054.63
2022-08-22T12:09:50.715Z,98054.91
2022-08-22T12:11:35.897Z,98053.53
2022-08-22T12:12:51.814Z,98064.84
2022-08-22T12:14:06.362Z,98057.25
2022-08-22T12:15:45.716Z,98065.78
2022-08-22T12:16:56.514Z,98063.69
2022-08-22T12:18:10.127Z,98069.13
2022-08-22T12:19:32.892Z,98073.91
2022-08-22T12:21:07.196Z,98073.19
2022-08-22T12:22:16.720Z,98069.78
2022-08-22T12:23:43.246Z,98075.47
2022-08-22T12:25:02.742Z,98077.19
2022-08-22T12:26:13.786Z,98075.53
2022-08-22T12:27:36.545Z,98072.63
2022-08-22T12:28:40.003Z,98075.06
2022-08-22T12:29:51.284Z,98068.28
2022-08-22T12:31:12.298Z,98070.91
2022-08-22T12:32:38.564Z,98072.41
2022-08-22T12:34:04.175Z,98064.63
2022-08-22T12:35:14.626Z,98067.34
2022-08-22T12:36:41.090Z,98065.06
2022-08-22T12:37:53.363Z,98044.50
2022-08-22T12:39:10.968Z,98056.97
2022-08-22T12:40:37.255Z,98052.91
2022-08-22T12:42:06.595Z,98060.38
2022-08-22T12:43:26.318Z,98054.38
2022-08-22T12:44:39.637Z,98053.13
2022-08-22T12:45:59.909Z,98059.69
2022-08-22T12:47:19.711Z,98055.03
2022-08-22T12:48:52.389Z,98048.41
2022-08-22T12:50:00.077Z,98049.25
2022-08-22T12:51:16.791Z,98057.09
2022-08-22T12:52:52.110Z,98057.91
2022-08-22T12:54:29.221Z,98053.91
2022-08-22T12:55:56.223Z,98051.19
2022-08-22T12:56:58.513Z,98040.66
2022-08-22T12:58:42.447Z,98044.16
2022-08-22T12:59:48.329Z,98026.91
2022-08-22T13:00:52.577Z,98043.84
2022-08-22T13:01:59.587Z,98030.72
2022-08-22T13:03:11.365Z,98037.50
2022-08-22T13:04:19.318Z,98031.72
2022-08-22T13:05:40.787Z,98032.94
2022-08-22T13:07:02.833Z,98039.09
2022-08-22T13:08:09.918Z,98036.38
2022-08-22T13:09:18.909Z,98036.38
2022-08-22T13:10:52.246Z,98031.63
2022-08-22T13:12:05.080Z,98028.44
2022-08-22T13:13:12.256Z,98027.53
2022-08-22T13:14:24.037Z,98016.72
2022-08-22T13:15:29.541Z,98020.56
2022-08-22T13:16:41.807Z,98035.59
2022-08-22T13:17:52.027Z,98040.66
2022-08-22T13:19:07.724Z,98016.66
2022-08-22T13:20:24.360Z,98028.13
2022-08-22T13:21:36.259Z,98033.88
2022-08-22T13:22:45.566Z,98036.25
2022-08-22T13:23:53.525Z,98022.09
2022-08-22T13:25:08.487Z,98036.44
2022-08-22T13:26:16.413Z,98037.69
2022-08-22T13:27:51.394Z,98018.47
2022-08-22T13:29:39.172Z,98019.34
2022-08-22T13:30:43.714Z,98031.22
2022-08-22T13:31:53.070Z,98032.44
2022-08-22T13:33:04.576Z,98027.69
2022-08-22T13:34:22.845Z,98027.25
2022-08-22T13:35:33.930Z,98006.91
2022-08-22T13:36:51.671Z,98011.28
2022-08-22T13:38:03.417Z,98023.13
2022-08-22T13:39:19.702Z,98028.94
2022-08-22T13:40:30.969Z,98021.81
2022-08-22T13:41:44.235Z,98029.72
2022-08-22T13:42:54.197Z,98026.38
2022-08-22T13:44:05.088Z,98025.84
2022-08-22T13:45:15.792Z,98037.16
2022-08-22T13:46:26.009Z,98015.50
2022-08-22T13:47:34.429Z,98034.44
2022-08-22T13:48:52.334Z,98030.31
2022-08-22T13:50:10.298Z,98037.88
2022-08-22T13:51:20.573Z,98045.13
2022-08-22T13:52:43.077Z,98043.38
2022-08-22T13:54:02.225Z,98030.72
2022-08-22T13:55:29.680Z,98042.38
2022-08-22T13:56:56.412Z,98046.22
2022-08-22T13:58:25.078Z,98045.34
2022-08-22T13:59:52.481Z,98053.03
2022-08-22T14:01:17.691Z,98048.97
2022-08-22T14:02:43.489Z,98055.19
2022-08-22T14:03:57.779Z,98053.63
2022-08-22T14:05:05.381Z,98047.31
2022-08-22T14:06:35.368Z,98064.38
2022-08-22T14:08:15.522Z,98056.38
2022-08-22T14:09:54.426Z,98064.28
2022-08-22T14:11:11.975Z,98064.19
2022-08-22T14:12:18.877Z,98064.41
2022-08-22T14:13:20.545Z,98058.00
2022-08-22T14:14:32.128Z,98053.59
2022-08-22T14:15:44.947Z,98054.06
2022-08-22T14:16:51.907Z,98061.19
2022-08-22T14:18:03.362Z,98057.25
2022-08-22T14:19:10.583Z,98065.63
2022-08-22T14:20:32.104Z,98067.66
2022-08-22T14:21:41.396Z,98064.81
2022-08-22T14:22:58.952Z,98062.25
2022-08-22T14:24:28.518Z,98067.34
2022-08-22T14:25:36.838Z,98059.66
2022-08-22T14:26:49.302Z,98069.84
2022-08-22T14:27:52.609Z,98073.09
2022-08-22T14:28:57.572Z,98063.28
2022-08-22T14:30:04.778Z,98066.34
2022-08-22T14:31:14.483Z,98053.31
2022-08-22T14:32:19.437Z,98074.03
2022-08-22T14:33:48.590Z,98081.53
2022-08-22T14:34:58.904Z,98075.19
2022-08-22T14:36:11.745Z,98086.38
2022-08-22T14:37:29.030Z,98075.59
2022-08-22T14:38:39.679Z,98093.13
2022-08-22T14:39:59.357Z,98084.81
2022-08-22T14:41:07.075Z,98096.78
2022-08-22T14:42:17.790Z,98089.53
2022-08-22T14:43:45.323Z,98088.13
2022-08-22T14:45:06.733Z,98085.97
2022-08-22T14:46:18.307Z,98087.09
2022-08-22T14:47:55.659Z,98082.97
2022-08-22T14:49:16.436Z,98088.28
2022-08-22T14:50:38.650Z,98084.50
2022-08-22T14:51:48.134Z,98064.47
2022-08-22T14:53:05.765Z,98089.22
2022-08-22T14:54:21.529Z,98068.75
2022-08-22T14:55:26.521Z,98077.03
2022-08-22T14:56:30.141Z,98078.94
2022-08-22T14:57:35.976Z,98073.38
2022-08-22T14:58:56.224Z,98075.63
2022-08-22T14:59:59.009Z,98067.81
2022-08-22T15:01:11.258Z,98066.88
2022-08-22T15:02:31.958Z,98042.50